createdAt,value
2022-08-28T00:01:26.656Z,19.45
2022-08-28T00:03:53.390Z,19.51
2022-08-28T00:06:20.118Z,19.50
2022-08-28T00:08:46.790Z,19.43
2022-08-28T00:11:13.445Z,19.39
2022-08-28T00:13:40.352Z,19.12
2022-08-28T00:16:07.399Z,19.07
2022-08-28T00:18:34.587Z,19.05
2022-08-28T00:21:01.654Z,19.03
2022-08-28T00:23:42.294Z,19.01
2022-08-28T00:26:09.335Z,18.98
2022-08-28T00:28:35.901Z,18.93
2022-08-28T00:31:02.753Z,18.80
2022-08-28T00:33:33.221Z,18.72
2022-08-28T00:36:01.096Z,18.75
2022-08-28T00:38:28.668Z,18.82
2022-08-28T00:41:01.143Z,18.80
2022-08-28T00:47:15.765Z,19.03
2022-08-28T00:49:49.449Z,19.06
2022-08-28T00:52:17.539Z,19.11
2022-08-28T00:54:58.410Z,19.01
2022-08-28T00:57:30.766Z,19.04
2022-08-28T00:59:58.193Z,19.02
2022-08-28T01:02:25.561Z,19.00
2022-08-28T01:04:52.331Z,19.03
2022-08-28T01:07:19.825Z,19.05
2022-08-28T01:09:51.093Z,19.06
2022-08-28T01:12:21.890Z,19.02
2022-08-28T01:14:51.057Z,18.92
2022-08-28T01:17:20.756Z,18.95
2022-08-28T01:19:57.968Z,18.87
2022-08-28T01:22:38.666Z,18.79
2022-08-28T01:25:14.415Z,18.92
2022-08-28T01:27:44.113Z,18.96
2022-08-28T01:30:16.997Z,19.04
2022-08-28T01:32:49.234Z,18.90
2022-08-28T01:35:20.278Z,18.86
2022-08-28T01:37:47.512Z,18.77
2022-08-28T01:40:18.133Z,18.75
2022-08-28T01:42:45.012Z,18.83
2022-08-28T01:45:15.749Z,18.87
2022-08-28T01:47:44.615Z,18.86
2022-08-28T01:50:15.074Z,18.83
2022-08-28T01:52:42.769Z,18.88
2022-08-28T01:55:10.836Z,18.84
2022-08-28T01:57:52.993Z,18.78
2022-08-28T02:00:20.602Z,18.75
2022-08-28T02:02:48.350Z,18.66
2022-08-28T02:05:15.295Z,18.64
2022-08-28T02:07:41.807Z,18.63
2022-08-28T02:10:11.956Z,18.62
2022-08-28T02:12:39.177Z,18.63
2022-08-28T02:15:07.798Z,18.64
2022-08-28T02:17:34.691Z,18.66
2022-08-28T02:20:01.602Z,18.66
2022-08-28T02:22:28.098Z,18.63
2022-08-28T02:24:54.600Z,18.59
2022-08-28T02:27:21.152Z,18.62
2022-08-28T02:29:48.522Z,18.64
2022-08-28T02:32:15.158Z,18.60
2022-08-28T02:34:43.549Z,18.53
2022-08-28T02:37:13.249Z,18.54
2022-08-28T02:39:40.004Z,18.53
2022-08-28T02:42:07.278Z,18.55
2022-08-28T02:44:34.978Z,18.51
2022-08-28T02:47:01.628Z,18.50
2022-08-28T02:49:33.053Z,18.48
2022-08-28T02:52:04.140Z,18.43
2022-08-28T02:54:31.185Z,18.46
2022-08-28T02:56:58.634Z,18.45
2022-08-28T02:59:25.405Z,18.47
2022-08-28T03:01:52.062Z,18.46
2022-08-28T03:04:18.955Z,18.52
2022-08-28T03:06:45.720Z,18.52
2022-08-28T03:09:12.308Z,18.48
2022-08-28T03:11:41.213Z,18.51
2022-08-28T03:14:07.938Z,18.57
2022-08-28T03:16:34.441Z,18.53
2022-08-28T03:19:01.033Z,18.53
2022-08-28T03:21:27.575Z,18.52
2022-08-28T03:23:54.213Z,18.50
2022-08-28T03:26:20.837Z,18.52
2022-08-28T03:28:52.491Z,18.53
2022-08-28T03:31:23.565Z,18.51
2022-08-28T03:33:51.467Z,18.57
2022-08-28T03:36:23.873Z,18.55
2022-08-28T03:38:52.503Z,18.51
2022-08-28T03:41:23.201Z,18.44
2022-08-28T03:43:50.767Z,18.32
2022-08-28T03:46:21.191Z,18.30
2022-08-28T03:48:48.026Z,18.33
2022-08-28T03:51:19.870Z,18.33
2022-08-28T03:53:52.742Z,18.26
2022-08-28T03:56:22.786Z,18.26
2022-08-28T03:58:52.784Z,18.29
2022-08-28T04:01:20.668Z,18.28
2022-08-28T04:03:47.940Z,18.38
2022-08-28T04:06:14.885Z,18.40
2022-08-28T04:08:41.767Z,18.36
2022-08-28T04:11:08.472Z,18.31
2022-08-28T04:13:35.379Z,18.26
2022-08-28T04:16:06.458Z,18.13
2022-08-28T04:18:33.463Z,18.17
2022-08-28T04:21:07.995Z,18.25
2022-08-28T04:23:39.053Z,18.31
2022-08-28T04:26:07.517Z,18.44
2022-08-28T04:28:35.079Z,18.48
2022-08-28T04:31:02.619Z,18.50
2022-08-28T04:33:29.770Z,18.41
2022-08-28T04:35:57.047Z,18.34
2022-08-28T04:38:24.294Z,18.29
2022-08-28T04:40:50.824Z,18.34
2022-08-28T04:43:17.382Z,18.37
2022-08-28T04:45:45.560Z,18.40
2022-08-28T04:48:14.211Z,18.36
2022-08-28T04:50:44.596Z,18.35
2022-08-28T04:53:11.785Z,18.23
2022-08-28T04:55:54.646Z,18.29
2022-08-28T04:58:23.905Z,18.27
2022-08-28T05:10:32.458Z,18.37
2022-08-28T05:13:12.224Z,18.46
2022-08-28T05:15:42.898Z,18.43
2022-08-28T05:18:20.605Z,18.46
2022-08-28T05:23:35.102Z,18.42
2022-08-28T05:28:57.873Z,18.44
2022-08-28T05:34:08.573Z,18.52
2022-08-28T05:36:42.043Z,18.58
2022-08-28T05:39:16.299Z,18.63
2022-08-28T05:41:46.984Z,18.75
2022-08-28T05:54:52.919Z,18.87
2022-08-28T05:57:24.896Z,18.88
2022-08-28T06:05:21.263Z,19.04
2022-08-28T06:23:55.154Z,19.20
2022-08-28T06:30:09.630Z,19.47
2022-08-28T06:32:51.159Z,19.33
2022-08-28T06:35:26.781Z,19.48
2022-08-28T06:37:59.800Z,19.46
2022-08-28T06:40:34.449Z,19.47
2022-08-28T06:43:01.427Z,19.35
2022-08-28T06:45:32.824Z,19.39
2022-08-28T06:48:03.622Z,19.44
2022-08-28T06:50:35.577Z,19.58
2022-08-28T06:53:04.687Z,19.69
2022-08-28T06:55:31.470Z,19.92
2022-08-28T06:57:59.878Z,20.01
2022-08-28T07:00:26.473Z,19.89
2022-08-28T07:02:53.160Z,19.94
2022-08-28T07:05:19.838Z,19.81
2022-08-28T07:07:46.409Z,20.05
2022-08-28T07:10:13.082Z,20.00
2022-08-28T07:12:40.762Z,20.06
2022-08-28T07:15:08.209Z,19.72
2022-08-28T07:17:36.110Z,19.68
2022-08-28T07:20:09.942Z,19.66
2022-08-28T07:22:36.531Z,19.70
2022-08-28T07:25:04.755Z,19.53
2022-08-28T07:27:31.533Z,19.71
2022-08-28T07:29:58.701Z,19.95
2022-08-28T07:32:25.418Z,19.79
2022-08-28T07:34:52.124Z,19.84
2022-08-28T07:37:19.153Z,20.10
2022-08-28T07:39:46.013Z,20.03
2022-08-28T07:42:35.569Z,20.07
2022-08-28T07:45:02.906Z,20.14
2022-08-28T07:47:31.674Z,20.25
2022-08-28T07:50:03.552Z,20.11
2022-08-28T07:52:30.197Z,20.16
2022-08-28T07:54:57.416Z,20.19
2022-08-28T07:57:24.020Z,20.45
2022-08-28T07:59:52.368Z,20.63
2022-08-28T08:02:18.948Z,20.90
2022-08-28T08:04:45.660Z,20.99
2022-08-28T08:07:12.937Z,21.07
2022-08-28T08:09:41.557Z,21.53
2022-08-28T08:12:10.348Z,21.97
2022-08-28T08:14:39.049Z,23.21
2022-08-28T08:17:07.303Z,24.97
2022-08-28T08:19:35.370Z,25.80
2022-08-28T08:22:02.319Z,27.40
2022-08-28T08:24:30.388Z,26.70
2022-08-28T08:27:00.936Z,25.09
2022-08-28T08:29:35.391Z,24.30
2022-08-28T08:32:07.162Z,24.36
2022-08-28T08:34:36.652Z,23.85
2022-08-28T08:37:03.567Z,23.60
2022-08-28T08:39:31.838Z,23.39
2022-08-28T08:42:00.713Z,24.08
2022-08-28T08:44:41.287Z,24.51
2022-08-28T08:47:25.028Z,24.35
2022-08-28T08:50:09.471Z,23.13
2022-08-28T08:52:58.912Z,23.16
2022-08-28T08:55:35.853Z,23.71
2022-08-28T08:58:11.369Z,24.06
2022-08-28T09:00:50.799Z,23.67
2022-08-28T09:03:25.397Z,24.24
2022-08-28T09:06:02.250Z,25.09
2022-08-28T09:08:40.494Z,25.46
2022-08-28T09:11:22.338Z,26.53
2022-08-28T09:13:56.286Z,26.85
2022-08-28T09:16:29.878Z,26.79
2022-08-28T09:18:58.214Z,26.69
2022-08-28T09:21:33.646Z,25.51
2022-08-28T09:24:19.360Z,25.30
2022-08-28T09:26:57.639Z,24.60
2022-08-28T09:29:31.717Z,24.71
2022-08-28T09:31:58.906Z,24.17
2022-08-28T09:34:36.703Z,24.29
2022-08-28T09:37:08.480Z,24.40
2022-08-28T09:39:38.077Z,24.06
2022-08-28T09:42:32.934Z,23.84
2022-08-28T09:45:09.457Z,23.75
2022-08-28T09:47:46.194Z,23.18
2022-08-28T09:50:32.644Z,23.87
2022-08-28T09:53:14.321Z,25.19
2022-08-28T09:55:55.400Z,27.39
2022-08-28T09:58:23.576Z,26.75
2022-08-28T10:01:01.974Z,28.92
2022-08-28T10:03:36.981Z,27.89
2022-08-28T10:06:11.093Z,26.10
2022-08-28T10:09:01.570Z,26.55
2022-08-28T10:11:42.587Z,26.73
2022-08-28T10:14:42.061Z,25.62
2022-08-28T10:17:23.839Z,25.80
2022-08-28T10:19:59.562Z,26.01
2022-08-28T10:22:29.158Z,27.41
2022-08-28T10:25:08.972Z,26.11
2022-08-28T10:27:44.849Z,25.91
2022-08-28T10:30:22.930Z,25.46
2022-08-28T10:33:23.767Z,24.57
2022-08-28T10:36:02.737Z,24.50
2022-08-28T10:38:40.322Z,23.94
2022-08-28T10:41:27.272Z,24.19
2022-08-28T10:43:57.269Z,24.47
2022-08-28T10:46:33.788Z,24.49
2022-08-28T10:49:44.260Z,24.32
2022-08-28T10:52:23.153Z,24.06
2022-08-28T10:54:57.660Z,24.58
2022-08-28T10:57:40.100Z,24.71
2022-08-28T11:00:12.507Z,24.97
2022-08-28T11:02:44.422Z,25.54
2022-08-28T11:05:11.924Z,25.76
2022-08-28T11:07:47.896Z,25.22
2022-08-28T11:10:20.141Z,25.33
2022-08-28T11:12:48.314Z,25.54
2022-08-28T11:15:34.194Z,25.36
2022-08-28T11:18:20.936Z,24.97
2022-08-28T11:21:16.718Z,24.66
2022-08-28T11:23:52.790Z,24.70
2022-08-28T11:26:48.841Z,24.24
2022-08-28T11:30:03.627Z,24.01
2022-08-28T11:32:51.616Z,24.11
2022-08-28T11:35:30.234Z,23.89
2022-08-28T11:37:58.537Z,24.42
2022-08-28T11:40:28.197Z,24.26
2022-08-28T11:43:16.972Z,24.35
2022-08-28T11:45:46.537Z,24.59
2022-08-28T11:48:25.911Z,24.84
2022-08-28T11:51:03.668Z,24.89
2022-08-28T11:54:07.010Z,24.86
2022-08-28T11:57:11.633Z,24.72
2022-08-28T11:59:38.206Z,24.75
2022-08-28T12:02:49.624Z,24.88
2022-08-28T12:05:16.319Z,24.87
2022-08-28T12:07:45.055Z,24.53
2022-08-28T12:10:20.907Z,24.49
2022-08-28T12:12:52.833Z,24.70
2022-08-28T12:15:28.664Z,24.69
2022-08-28T12:17:58.470Z,24.42
2022-08-28T12:20:29.513Z,24.48
2022-08-28T12:22:59.739Z,24.73
2022-08-28T12:25:32.366Z,24.54
2022-08-28T12:28:28.724Z,24.49
2022-08-28T12:31:11.687Z,24.56
2022-08-28T12:34:00.744Z,24.77
2022-08-28T12:36:28.803Z,24.72
2022-08-28T12:38:58.233Z,25.05
2022-08-28T12:41:25.593Z,24.93
2022-08-28T12:43:58.205Z,25.02
2022-08-28T12:46:37.705Z,25.62
2022-08-28T12:49:25.148Z,25.30
2022-08-28T12:52:06.618Z,25.16
2022-08-28T12:54:33.324Z,25.90
2022-08-28T12:57:00.069Z,26.48
2022-08-28T12:59:36.688Z,26.87
2022-08-28T13:02:12.498Z,27.16
2022-08-28T13:04:56.055Z,27.47
2022-08-28T13:07:35.419Z,27.77
2022-08-28T13:10:19.237Z,27.63
2022-08-28T13:12:56.086Z,26.59
2022-08-28T13:16:01.416Z,26.30
2022-08-28T13:18:56.477Z,26.24
2022-08-28T13:21:33.858Z,25.85
2022-08-28T13:24:28.151Z,25.79
2022-08-28T13:27:50.521Z,26.29
2022-08-28T13:39:36.881Z,25.83
2022-08-28T13:48:49.066Z,25.18
2022-08-28T13:51:20.793Z,24.84
2022-08-28T14:08:00.397Z,24.56
2022-08-28T14:18:47.703Z,24.47
2022-08-28T14:25:52.434Z,24.57
2022-08-28T14:28:19.402Z,24.62
2022-08-28T14:30:48.658Z,24.51
2022-08-28T14:33:18.684Z,24.52
2022-08-28T14:35:50.132Z,24.45
2022-08-28T14:38:17.181Z,24.33
2022-08-28T14:40:44.850Z,24.40
2022-08-28T14:43:13.715Z,24.30
2022-08-28T14:45:50.248Z,24.53
2022-08-28T14:48:19.010Z,24.71
2022-08-28T14:50:48.058Z,24.46
2022-08-28T14:53:15.947Z,24.49
2022-08-28T14:55:48.621Z,24.64
2022-08-28T14:58:17.849Z,24.70
2022-08-28T15:00:50.101Z,24.75
2022-08-28T15:03:18.703Z,24.85
2022-08-28T15:05:46.074Z,24.83
2022-08-28T15:08:16.882Z,24.94
2022-08-28T15:10:44.344Z,24.91
2022-08-28T15:13:11.544Z,24.69
2022-08-28T15:15:41.215Z,25.10
2022-08-28T15:18:10.266Z,24.95
2022-08-28T15:20:46.895Z,25.04
2022-08-28T15:23:15.349Z,25.01
2022-08-28T15:25:42.383Z,25.15
2022-08-28T15:28:09.830Z,25.07
2022-08-28T15:30:37.606Z,25.24
2022-08-28T15:33:04.950Z,24.97
2022-08-28T15:35:33.890Z,25.11
2022-08-28T15:38:00.584Z,24.94
2022-08-28T15:40:45.861Z,25.00
2022-08-28T15:43:12.656Z,25.01
2022-08-28T15:45:41.233Z,25.05
2022-08-28T15:48:10.829Z,24.87
2022-08-28T15:50:38.571Z,24.86
2022-08-28T15:53:06.695Z,24.91
2022-08-28T15:55:36.703Z,24.99
2022-08-28T15:58:04.655Z,25.08
2022-08-28T16:00:40.755Z,24.99
2022-08-28T16:03:07.406Z,24.99
2022-08-28T16:05:40.616Z,24.82
2022-08-28T16:08:51.749Z,24.76
2022-08-28T16:11:59.290Z,24.66
2022-08-28T16:14:47.378Z,24.63
2022-08-28T16:17:45.009Z,24.49
2022-08-28T16:20:19.529Z,24.43
2022-08-28T16:22:54.052Z,24.52
2022-08-28T16:25:28.370Z,24.42
2022-08-28T16:28:16.232Z,24.18
2022-08-28T16:30:49.728Z,24.06
2022-08-28T16:33:22.195Z,24.13
2022-08-28T16:38:59.731Z,24.12
2022-08-28T16:41:32.315Z,24.09
2022-08-28T16:43:59.327Z,24.14
2022-08-28T16:46:44.390Z,24.13
2022-08-28T16:49:41.694Z,24.18
2022-08-28T16:52:08.332Z,24.24
2022-08-28T16:55:17.105Z,24.16
2022-08-28T16:57:44.077Z,24.22
2022-08-28T17:00:15.533Z,24.29
2022-08-28T17:02:43.683Z,24.26
2022-08-28T17:05:15.321Z,24.19
2022-08-28T17:08:02.191Z,24.20
2022-08-28T17:10:29.114Z,24.23
2022-08-28T17:12:56.669Z,24.23
2022-08-28T17:15:29.193Z,24.13
2022-08-28T17:17:56.489Z,24.05
2022-08-28T17:20:41.746Z,23.99
2022-08-28T17:23:08.384Z,23.97
2022-08-28T17:25:35.007Z,23.90
2022-08-28T17:28:04.473Z,23.87
2022-08-28T17:30:31.028Z,23.83
2022-08-28T17:33:04.678Z,23.73
2022-08-28T17:35:31.748Z,23.63
2022-08-28T17:38:08.336Z,23.57
2022-08-28T17:40:35.101Z,23.60
2022-08-28T17:43:02.864Z,23.51
2022-08-28T17:45:29.863Z,23.48
2022-08-28T17:48:08.782Z,23.45
2022-08-28T17:51:09.168Z,23.46
2022-08-28T18:09:38.855Z,23.49
2022-08-28T18:12:55.665Z,23.41
2022-08-28T18:23:35.638Z,22.85
2022-08-28T18:27:02.409Z,22.74
2022-08-28T18:29:49.384Z,22.72
2022-08-28T18:32:58.402Z,22.68
2022-08-28T18:42:27.681Z,22.63
2022-08-28T18:45:43.451Z,22.50
2022-08-28T18:48:10.228Z,22.44
2022-08-28T18:51:03.406Z,22.38
2022-08-28T18:53:53.436Z,22.22
2022-08-28T18:56:24.335Z,22.09
2022-08-28T18:58:57.100Z,22.12
2022-08-28T19:01:24.418Z,22.00
2022-08-28T19:03:51.114Z,21.82
2022-08-28T19:06:17.905Z,21.76
2022-08-28T19:08:45.905Z,21.86
2022-08-28T19:11:14.037Z,21.83
2022-08-28T19:13:42.009Z,21.69
2022-08-28T19:16:09.649Z,21.57
2022-08-28T19:18:36.417Z,21.47
2022-08-28T19:21:10.222Z,21.31
2022-08-28T19:23:42.109Z,21.31
2022-08-28T19:26:22.112Z,21.26
2022-08-28T19:28:50.558Z,21.33
2022-08-28T19:31:17.949Z,21.21
2022-08-28T19:33:46.480Z,21.15
2022-08-28T19:36:13.929Z,21.02
2022-08-28T19:38:41.761Z,20.98
2022-08-28T19:41:10.244Z,20.91
2022-08-28T19:43:42.870Z,20.89
2022-08-28T19:46:19.541Z,20.77
2022-08-28T19:48:50.569Z,20.66
2022-08-28T19:51:23.434Z,20.57
2022-08-28T19:53:58.469Z,20.38
2022-08-28T19:56:28.143Z,20.36
2022-08-28T19:58:58.903Z,20.41
2022-08-28T20:01:30.416Z,20.37
2022-08-28T20:03:58.585Z,20.31
2022-08-28T20:06:25.625Z,20.17
2022-08-28T20:08:52.238Z,20.08
2022-08-28T20:11:24.812Z,20.02
2022-08-28T20:13:56.590Z,20.06
2022-08-28T20:16:27.576Z,20.17
2022-08-28T20:18:55.716Z,20.24
2022-08-28T20:21:36.741Z,20.31
2022-08-28T20:24:07.329Z,20.08
2022-08-28T20:26:34.020Z,20.05
2022-08-28T20:29:00.669Z,19.83
2022-08-28T20:31:27.462Z,19.67
2022-08-28T20:33:54.314Z,19.65
2022-08-28T20:36:21.537Z,19.60
2022-08-28T20:38:48.284Z,19.60
2022-08-28T20:41:18.235Z,19.59
2022-08-28T20:43:46.317Z,19.60
2022-08-28T20:46:16.596Z,19.66
2022-08-28T20:48:44.041Z,19.53
2022-08-28T20:51:11.382Z,19.41
2022-08-28T20:53:38.719Z,19.28
2022-08-28T20:56:08.439Z,19.21
2022-08-28T20:58:36.012Z,19.14
2022-08-28T21:01:02.850Z,19.09
2022-08-28T21:03:32.549Z,19.09
2022-08-28T21:05:59.369Z,19.11
2022-08-28T21:08:26.140Z,19.23
2022-08-28T21:10:52.827Z,19.31
2022-08-28T21:13:19.702Z,19.33
2022-08-28T21:15:46.425Z,19.36
2022-08-28T21:18:13.865Z,19.51
2022-08-28T21:20:40.937Z,19.40
2022-08-28T21:23:08.839Z,19.25
2022-08-28T21:25:38.444Z,19.11
2022-08-28T21:28:06.725Z,19.06
2022-08-28T21:30:34.273Z,19.04
2022-08-28T21:33:01.146Z,18.98
2022-08-28T21:35:27.802Z,18.77
2022-08-28T21:37:54.471Z,18.72
2022-08-28T21:40:21.178Z,18.73
2022-08-28T21:42:50.232Z,18.80
2022-08-28T21:45:16.878Z,18.91
2022-08-28T21:47:43.849Z,18.87
2022-08-28T21:50:10.883Z,18.87
2022-08-28T21:52:37.586Z,19.02
2022-08-28T21:55:09.396Z,18.99
2022-08-28T21:57:36.510Z,19.14
2022-08-28T22:00:07.431Z,19.21
2022-08-28T22:02:34.574Z,19.12
2022-08-28T22:05:01.298Z,19.06
2022-08-28T22:07:27.976Z,19.02
2022-08-28T22:09:54.681Z,19.00
2022-08-28T22:12:21.452Z,18.99
2022-08-28T22:14:48.290Z,19.00
2022-08-28T22:17:15.322Z,18.87
2022-08-28T22:19:42.168Z,18.72
2022-08-28T22:22:31.542Z,18.66
2022-08-28T22:24:58.639Z,18.76
2022-08-28T22:27:25.339Z,18.75
2022-08-28T22:29:51.896Z,18.78
2022-08-28T22:32:18.707Z,18.68
2022-08-28T22:34:46.174Z,18.63
2022-08-28T22:37:13.633Z,18.60
2022-08-28T22:39:41.700Z,18.53
2022-08-28T22:42:09.796Z,18.41
2022-08-28T22:44:37.351Z,18.34
2022-08-28T22:47:04.900Z,18.20
2022-08-28T22:49:31.701Z,18.12
2022-08-28T22:51:58.404Z,17.94
2022-08-28T22:54:26.135Z,17.82
2022-08-28T22:56:52.769Z,17.80
2022-08-28T22:59:19.455Z,17.80
2022-08-28T23:01:46.385Z,17.78
2022-08-28T23:04:13.048Z,17.63
2022-08-28T23:06:40.265Z,17.64
2022-08-28T23:09:08.361Z,17.67
2022-08-28T23:11:36.422Z,17.68
2022-08-28T23:14:05.440Z,17.73
2022-08-28T23:16:32.465Z,17.80
2022-08-28T23:19:07.874Z,17.98
2022-08-28T23:21:40.964Z,18.02
2022-08-28T23:24:13.063Z,18.02
2022-08-28T23:26:39.739Z,18.00
2022-08-28T23:29:06.382Z,18.03
2022-08-28T23:31:33.049Z,18.02
2022-08-28T23:33:59.801Z,18.03
2022-08-28T23:36:26.532Z,18.07
2022-08-28T23:38:53.436Z,18.03
2022-08-28T23:41:20.065Z,17.90
2022-08-28T23:43:47.172Z,17.66
2022-08-28T23:46:16.281Z,17.53
2022-08-28T23:48:43.425Z,17.41
2022-08-28T23:51:13.845Z,17.41
2022-08-28T23:53:42.897Z,17.46
2022-08-28T23:56:09.728Z,17.53
2022-08-28T23:58:36.409Z,17.48
